sensor_id;sensor_type;location;lat;lon;timestamp;noise_LAeq;noise_LA_min;noise_LA_max;noise_LA01;noise_LA95
66888;Laerm;53798;51.680;5.976;2023-01-01T00:01:45;54.18;39.00;81.09;;
66888;Laerm;53798;51.680;5.976;2023-01-01T00:04:14;61.23;40.44;77.54;;
66888;Laerm;53798;51.680;5.976;2023-01-01T00:06:42;77.72;37.99;105.01;;
66888;Laerm;53798;51.680;5.976;2023-01-01T00:09:09;73.14;40.98;103.44;;
66888;Laerm;53798;51.680;5.976;2023-01-01T00:11:55;69.04;38.97;95.01;;
66888;Laerm;53798;51.680;5.976;2023-01-01T00:14:23;51.81;38.88;75.04;;
66888;Laerm;53798;51.680;5.976;2023-01-01T00:16:50;62.47;40.94;80.08;;
66888;Laerm;53798;51.680;5.976;2023-01-01T00:19:17;61.33;38.39;78.69;;
66888;Laerm;53798;51.680;5.976;2023-01-01T00:21:44;52.45;39.17;65.88;;
66888;Laerm;53798;51.680;5.976;2023-01-01T00:24:12;52.13;38.44;75.91;;
66888;Laerm;53798;51.680;5.976;2023-01-01T00:26:39;59.69;38.53;77.55;;
66888;Laerm;53798;51.680;5.976;2023-01-01T00:29:06;61.42;40.17;83.27;;
66888;Laerm;53798;51.680;5.976;2023-01-01T00:31:33;59.71;38.61;77.51;;
66888;Laerm;53798;51.680;5.976;2023-01-01T00:34:00;61.69;37.67;79.14;;
66888;Laerm;53798;51.680;5.976;2023-01-01T00:36:29;64.38;37.73;78.86;;
66888;Laerm;53798;51.680;5.976;2023-01-01T00:38:56;58.88;39.68;76.37;;
66888;Laerm;53798;51.680;5.976;2023-01-01T00:41:23;64.11;40.43;82.16;;
66888;Laerm;53798;51.680;5.976;2023-01-01T00:43:50;62.36;39.71;83.49;;
66888;Laerm;53798;51.680;5.976;2023-01-01T00:46:18;59.59;36.68;79.51;;
66888;Laerm;53798;51.680;5.976;2023-01-01T00:48:45;47.23;37.89;74.05;;
66888;Laerm;53798;51.680;5.976;2023-01-01T00:51:12;52.88;38.11;73.92;;
66888;Laerm;53798;51.680;5.976;2023-01-01T00:53:39;49.86;36.70;69.95;;
66888;Laerm;53798;51.680;5.976;2023-01-01T00:56:06;64.71;36.68;78.30;;
66888;Laerm;53798;51.680;5.976;2023-01-01T00:58:34;41.40;36.07;62.33;;
66888;Laerm;53798;51.680;5.976;2023-01-01T01:01:01;56.19;36.81;73.08;;
66888;Laerm;53798;51.680;5.976;2023-01-01T01:03:29;63.66;36.27;79.94;;
66888;Laerm;53798;51.680;5.976;2023-01-01T01:08:33;55.13;36.08;72.01;;
66888;Laerm;53798;51.680;5.976;2023-01-01T01:11:23;51.46;36.03;72.25;;
66888;Laerm;53798;51.680;5.976;2023-01-01T01:13:54;61.29;38.01;77.09;;
66888;Laerm;53798;51.680;5.976;2023-01-01T01:16:31;62.60;37.20;83.29;;
66888;Laerm;53798;51.680;5.976;2023-01-01T01:19:02;51.77;36.55;72.36;;
66888;Laerm;53798;51.680;5.976;2023-01-01T01:21:32;61.21;38.34;76.82;;
66888;Laerm;53798;51.680;5.976;2023-01-01T01:24:02;54.17;37.24;72.26;;
66888;Laerm;53798;51.680;5.976;2023-01-01T01:26:32;47.80;35.11;72.46;;
66888;Laerm;53798;51.680;5.976;2023-01-01T01:29:00;55.98;36.37;74.99;;
66888;Laerm;53798;51.680;5.976;2023-01-01T01:31:30;55.11;36.35;72.93;;
66888;Laerm;53798;51.680;5.976;2023-01-01T01:33:58;55.89;36.82;73.08;;
66888;Laerm;53798;51.680;5.976;2023-01-01T01:36:27;41.91;36.58;65.60;;
66888;Laerm;53798;51.680;5.976;2023-01-01T01:38:56;59.29;36.15;77.40;;
66888;Laerm;53798;51.680;5.976;2023-01-01T01:41:25;42.21;35.46;65.06;;
66888;Laerm;53798;51.680;5.976;2023-01-01T01:44:02;39.39;35.85;58.43;;
66888;Laerm;53798;51.680;5.976;2023-01-01T01:46:40;55.15;35.66;73.05;;
66888;Laerm;53798;51.680;5.976;2023-01-01T01:49:25;63.32;36.94;81.98;;
66888;Laerm;53798;51.680;5.976;2023-01-01T01:51:54;55.40;36.60;72.42;;
66888;Laerm;53798;51.680;5.976;2023-01-01T01:54:26;42.13;35.99;61.33;;
66888;Laerm;53798;51.680;5.976;2023-01-01T01:57:15;62.04;35.12;78.22;;
66888;Laerm;53798;51.680;5.976;2023-01-01T01:59:49;56.00;35.15;74.81;;
66888;Laerm;53798;51.680;5.976;2023-01-01T02:02:35;45.69;34.77;65.34;;
66888;Laerm;53798;51.680;5.976;2023-01-01T02:05:04;59.86;36.56;76.64;;
66888;Laerm;53798;51.680;5.976;2023-01-01T02:07:33;41.34;35.96;64.52;;
66888;Laerm;53798;51.680;5.976;2023-01-01T02:10:03;56.78;36.05;76.75;;
66888;Laerm;53798;51.680;5.976;2023-01-01T02:12:31;59.41;37.56;79.09;;
66888;Laerm;53798;51.680;5.976;2023-01-01T02:14:58;43.69;35.76;57.62;;
66888;Laerm;53798;51.680;5.976;2023-01-01T02:18:00;55.00;36.71;74.77;;
66888;Laerm;53798;51.680;5.976;2023-01-01T02:20:53;57.30;36.73;72.33;;
66888;Laerm;53798;51.680;5.976;2023-01-01T02:26:39;48.83;35.60;73.63;;
66888;Laerm;53798;51.680;5.976;2023-01-01T02:32:12;60.28;36.94;78.60;;
66888;Laerm;53798;51.680;5.976;2023-01-01T02:34:49;59.46;36.77;79.17;;
66888;Laerm;53798;51.680;5.976;2023-01-01T02:37:21;60.58;38.54;76.49;;
66888;Laerm;53798;51.680;5.976;2023-01-01T02:39:56;60.51;34.71;80.32;;
66888;Laerm;53798;51.680;5.976;2023-01-01T02:42:28;66.11;35.66;81.51;;
66888;Laerm;53798;51.680;5.976;2023-01-01T02:44:59;58.71;35.70;79.39;;
66888;Laerm;53798;51.680;5.976;2023-01-01T02:47:26;57.31;35.47;76.78;;
66888;Laerm;53798;51.680;5.976;2023-01-01T02:50:14;64.94;37.08;84.55;;
66888;Laerm;53798;51.680;5.976;2023-01-01T02:56:00;59.18;38.38;76.84;;
66888;Laerm;53798;51.680;5.976;2023-01-01T02:59:20;61.06;36.86;79.61;;
66888;Laerm;53798;51.680;5.976;2023-01-01T03:11:21;58.44;37.84;74.87;;
66888;Laerm;53798;51.680;5.976;2023-01-01T03:14:08;43.34;36.04;58.02;;
66888;Laerm;53798;51.680;5.976;2023-01-01T03:16:48;45.03;37.18;59.98;;
66888;Laerm;53798;51.680;5.976;2023-01-01T03:19:41;42.38;36.35;56.97;;
66888;Laerm;53798;51.680;5.976;2023-01-01T03:22:16;58.98;36.20;79.42;;
66888;Laerm;53798;51.680;5.976;2023-01-01T03:25:03;49.06;34.84;65.66;;
66888;Laerm;53798;51.680;5.976;2023-01-01T03:27:40;55.00;36.11;74.38;;
66888;Laerm;53798;51.680;5.976;2023-01-01T03:30:12;42.65;36.07;58.32;;
66888;Laerm;53798;51.680;5.976;2023-01-01T03:32:48;54.91;35.98;72.96;;
66888;Laerm;53798;51.680;5.976;2023-01-01T03:35:51;48.17;36.14;69.94;;
66888;Laerm;53798;51.680;5.976;2023-01-01T03:38:34;56.61;37.15;73.43;;
66888;Laerm;53798;51.680;5.976;2023-01-01T03:41:10;59.18;36.89;78.84;;
66888;Laerm;53798;51.680;5.976;2023-01-01T03:43:50;43.57;36.99;64.55;;
66888;Laerm;53798;51.680;5.976;2023-01-01T03:46:25;54.94;36.65;71.47;;
66888;Laerm;53798;51.680;5.976;2023-01-01T03:48:56;43.50;37.28;61.93;;
66888;Laerm;53798;51.680;5.976;2023-01-01T03:52:05;42.57;35.48;56.65;;
66888;Laerm;53798;51.680;5.976;2023-01-01T03:54:49;42.81;37.43;62.03;;
66888;Laerm;53798;51.680;5.976;2023-01-01T04:00:21;40.23;33.88;52.76;;
66888;Laerm;53798;51.680;5.976;2023-01-01T04:03:01;60.34;35.33;80.10;;
66888;Laerm;53798;51.680;5.976;2023-01-01T04:05:35;41.47;35.54;52.19;;
66888;Laerm;53798;51.680;5.976;2023-01-01T04:08:03;40.57;35.63;58.02;;
66888;Laerm;53798;51.680;5.976;2023-01-01T04:10:33;42.42;35.16;57.70;;
66888;Laerm;53798;51.680;5.976;2023-01-01T04:13:05;41.71;35.82;56.67;;
66888;Laerm;53798;51.680;5.976;2023-01-01T04:15:33;40.12;35.55;59.93;;
66888;Laerm;53798;51.680;5.976;2023-01-01T04:18:02;42.23;36.85;57.41;;
66888;Laerm;53798;51.680;5.976;2023-01-01T04:20:31;39.57;34.82;47.58;;
66888;Laerm;53798;51.680;5.976;2023-01-01T04:23:00;40.22;34.85;55.89;;
66888;Laerm;53798;51.680;5.976;2023-01-01T04:25:28;44.27;35.65;73.35;;
66888;Laerm;53798;51.680;5.976;2023-01-01T04:27:56;42.57;35.69;60.51;;
66888;Laerm;53798;51.680;5.976;2023-01-01T04:30:29;50.79;35.04;75.54;;
66888;Laerm;53798;51.680;5.976;2023-01-01T04:32:56;49.45;35.43;80.73;;
66888;Laerm;53798;51.680;5.976;2023-01-01T04:35:24;60.11;37.19;78.98;;
66888;Laerm;53798;51.680;5.976;2023-01-01T04:37:51;44.54;37.00;72.20;;
66888;Laerm;53798;51.680;5.976;2023-01-01T04:40:19;49.65;35.97;81.69;;
66888;Laerm;53798;51.680;5.976;2023-01-01T04:42:46;41.06;35.84;50.42;;
66888;Laerm;53798;51.680;5.976;2023-01-01T04:45:13;43.18;34.98;55.73;;
66888;Laerm;53798;51.680;5.976;2023-01-01T04:47:41;41.77;34.99;62.02;;
66888;Laerm;53798;51.680;5.976;2023-01-01T04:50:09;40.00;34.91;54.79;;
66888;Laerm;53798;51.680;5.976;2023-01-01T04:52:36;39.97;35.23;50.20;;
66888;Laerm;53798;51.680;5.976;2023-01-01T04:55:04;44.63;35.27;60.01;;
66888;Laerm;53798;51.680;5.976;2023-01-01T04:57:31;53.27;34.62;74.29;;
66888;Laerm;53798;51.680;5.976;2023-01-01T04:59:59;38.99;34.11;58.32;;
66888;Laerm;53798;51.680;5.976;2023-01-01T05:02:26;37.37;34.13;46.11;;
66888;Laerm;53798;51.680;5.976;2023-01-01T05:04:53;39.80;32.73;58.50;;
66888;Laerm;53798;51.680;5.976;2023-01-01T05:07:21;38.91;34.33;55.25;;
66888;Laerm;53798;51.680;5.976;2023-01-01T05:09:51;55.71;34.74;74.47;;
66888;Laerm;53798;51.680;5.976;2023-01-01T05:12:18;38.07;34.36;45.71;;
66888;Laerm;53798;51.680;5.976;2023-01-01T05:14:45;41.46;34.55;57.35;;
66888;Laerm;53798;51.680;5.976;2023-01-01T05:17:12;44.11;34.17;70.35;;
66888;Laerm;53798;51.680;5.976;2023-01-01T05:19:39;39.23;33.73;53.97;;
66888;Laerm;53798;51.680;5.976;2023-01-01T05:22:06;39.40;33.19;53.97;;
66888;Laerm;53798;51.680;5.976;2023-01-01T05:24:37;38.77;33.72;52.22;;
66888;Laerm;53798;51.680;5.976;2023-01-01T05:27:04;55.14;34.97;72.93;;
66888;Laerm;53798;51.680;5.976;2023-01-01T05:29:32;40.27;33.17;58.73;;
66888;Laerm;53798;51.680;5.976;2023-01-01T05:31:59;53.59;33.61;69.97;;
66888;Laerm;53798;51.680;5.976;2023-01-01T05:34:26;39.95;34.20;54.32;;
66888;Laerm;53798;51.680;5.976;2023-01-01T05:36:53;36.62;33.08;44.16;;
66888;Laerm;53798;51.680;5.976;2023-01-01T05:39:21;41.74;35.58;61.60;;
66888;Laerm;53798;51.680;5.976;2023-01-01T05:41:49;39.35;34.96;51.36;;
66888;Laerm;53798;51.680;5.976;2023-01-01T05:44:17;38.42;34.08;53.67;;
66888;Laerm;53798;51.680;5.976;2023-01-01T05:46:45;56.79;33.37;75.80;;
66888;Laerm;53798;51.680;5.976;2023-01-01T05:49:12;39.67;34.57;53.38;;
66888;Laerm;53798;51.680;5.976;2023-01-01T05:51:39;42.72;35.07;59.27;;
66888;Laerm;53798;51.680;5.976;2023-01-01T05:54:05;59.75;34.38;80.59;;
66888;Laerm;53798;51.680;5.976;2023-01-01T05:56:33;57.73;34.20;78.22;;
66888;Laerm;53798;51.680;5.976;2023-01-01T05:59:00;42.65;34.16;60.35;;
66888;Laerm;53798;51.680;5.976;2023-01-01T06:01:29;44.17;33.37;64.92;;
66888;Laerm;53798;51.680;5.976;2023-01-01T06:03:58;57.39;37.34;75.55;;
66888;Laerm;53798;51.680;5.976;2023-01-01T06:06:30;45.39;34.37;68.12;;
66888;Laerm;53798;51.680;5.976;2023-01-01T06:09:03;53.90;34.88;72.05;;
66888;Laerm;53798;51.680;5.976;2023-01-01T06:11:31;41.44;36.99;54.56;;
66888;Laerm;53798;51.680;5.976;2023-01-01T06:14:00;43.92;38.58;58.20;;
66888;Laerm;53798;51.680;5.976;2023-01-01T06:16:29;51.48;42.21;69.78;;
66888;Laerm;53798;51.680;5.976;2023-01-01T06:18:56;54.80;43.05;70.48;;
66888;Laerm;53798;51.680;5.976;2023-01-01T06:21:27;45.82;36.43;66.32;;
66888;Laerm;53798;51.680;5.976;2023-01-01T06:23:57;44.82;34.63;61.86;;
66888;Laerm;53798;51.680;5.976;2023-01-01T06:26:29;41.94;35.26;60.86;;
66888;Laerm;53798;51.680;5.976;2023-01-01T06:28:59;58.99;38.99;73.96;;
66888;Laerm;53798;51.680;5.976;2023-01-01T06:31:28;42.38;35.36;59.27;;
66888;Laerm;53798;51.680;5.976;2023-01-01T06:34:00;56.71;35.30;75.78;;
66888;Laerm;53798;51.680;5.976;2023-01-01T06:36:27;56.66;36.84;74.14;;
66888;Laerm;53798;51.680;5.976;2023-01-01T06:38:55;41.77;35.41;56.22;;
66888;Laerm;53798;51.680;5.976;2023-01-01T06:41:25;43.07;34.80;66.92;;
66888;Laerm;53798;51.680;5.976;2023-01-01T06:43:56;60.45;34.22;77.12;;
66888;Laerm;53798;51.680;5.976;2023-01-01T06:46:34;40.81;34.38;59.07;;
66888;Laerm;53798;51.680;5.976;2023-01-01T06:49:05;38.91;32.79;65.78;;
66888;Laerm;53798;51.680;5.976;2023-01-01T06:51:41;39.04;33.48;52.73;;
66888;Laerm;53798;51.680;5.976;2023-01-01T06:54:09;56.13;36.21;75.49;;
66888;Laerm;53798;51.680;5.976;2023-01-01T06:56:37;61.49;38.70;80.07;;
66888;Laerm;53798;51.680;5.976;2023-01-01T06:59:05;57.60;41.29;75.57;;
66888;Laerm;53798;51.680;5.976;2023-01-01T07:01:34;48.78;44.16;67.62;;
66888;Laerm;53798;51.680;5.976;2023-01-01T07:04:05;48.29;44.10;67.43;;
66888;Laerm;53798;51.680;5.976;2023-01-01T07:06:34;47.22;41.67;61.71;;
66888;Laerm;53798;51.680;5.976;2023-01-01T07:09:02;44.52;39.00;58.98;;
66888;Laerm;53798;51.680;5.976;2023-01-01T07:11:30;40.96;36.61;54.22;;
66888;Laerm;53798;51.680;5.976;2023-01-01T07:13:57;43.19;37.41;58.98;;
66888;Laerm;53798;51.680;5.976;2023-01-01T07:16:25;46.00;35.96;70.95;;
66888;Laerm;53798;51.680;5.976;2023-01-01T07:18:52;41.35;32.86;60.31;;
66888;Laerm;53798;51.680;5.976;2023-01-01T07:21:33;40.28;33.25;59.46;;
66888;Laerm;53798;51.680;5.976;2023-01-01T07:24:07;37.36;32.33;52.91;;
66888;Laerm;53798;51.680;5.976;2023-01-01T07:26:35;38.94;32.60;52.60;;
66888;Laerm;53798;51.680;5.976;2023-01-01T07:29:03;57.38;33.09;74.18;;
66888;Laerm;53798;51.680;5.976;2023-01-01T07:31:40;41.24;33.75;63.57;;
66888;Laerm;53798;51.680;5.976;2023-01-01T07:34:15;57.08;35.59;77.04;;
66888;Laerm;53798;51.680;5.976;2023-01-01T07:36:45;60.87;43.40;79.81;;
66888;Laerm;53798;51.680;5.976;2023-01-01T07:39:12;46.60;39.83;55.73;;
66888;Laerm;53798;51.680;5.976;2023-01-01T07:41:40;42.66;38.25;57.04;;
66888;Laerm;53798;51.680;5.976;2023-01-01T07:44:07;42.95;38.52;58.56;;
66888;Laerm;53798;51.680;5.976;2023-01-01T07:46:36;42.62;38.41;54.48;;
66888;Laerm;53798;51.680;5.976;2023-01-01T07:49:04;47.54;35.67;72.21;;
66888;Laerm;53798;51.680;5.976;2023-01-01T07:51:33;45.17;34.93;68.02;;
66888;Laerm;53798;51.680;5.976;2023-01-01T07:54:00;61.01;35.90;77.76;;
66888;Laerm;53798;51.680;5.976;2023-01-01T07:56:34;59.22;35.67;76.19;;
66888;Laerm;53798;51.680;5.976;2023-01-01T07:59:02;42.85;36.69;57.45;;
66888;Laerm;53798;51.680;5.976;2023-01-01T08:01:29;45.33;37.02;60.03;;
66888;Laerm;53798;51.680;5.976;2023-01-01T08:03:56;62.10;35.93;76.92;;
66888;Laerm;53798;51.680;5.976;2023-01-01T08:06:24;44.03;36.40;58.79;;
66888;Laerm;53798;51.680;5.976;2023-01-01T08:08:51;40.33;36.53;54.03;;
66888;Laerm;53798;51.680;5.976;2023-01-01T08:11:19;59.88;37.24;75.67;;
66888;Laerm;53798;51.680;5.976;2023-01-01T08:13:46;50.28;38.29;68.44;;
66888;Laerm;53798;51.680;5.976;2023-01-01T08:16:13;61.26;39.20;76.91;;
66888;Laerm;53798;51.680;5.976;2023-01-01T08:18:40;42.81;38.06;57.77;;
66888;Laerm;53798;51.680;5.976;2023-01-01T08:21:07;42.79;38.18;56.32;;
66888;Laerm;53798;51.680;5.976;2023-01-01T08:23:34;57.45;40.91;75.19;;
66888;Laerm;53798;51.680;5.976;2023-01-01T08:26:03;48.69;44.02;63.32;;
66888;Laerm;53798;51.680;5.976;2023-01-01T08:28:35;61.32;45.42;78.58;;
66888;Laerm;53798;51.680;5.976;2023-01-01T08:31:03;45.31;42.48;56.02;;
66888;Laerm;53798;51.680;5.976;2023-01-01T08:33:32;65.13;44.78;82.11;;
66888;Laerm;53798;51.680;5.976;2023-01-01T08:36:01;60.89;43.58;78.17;;
66888;Laerm;53798;51.680;5.976;2023-01-01T08:38:28;60.18;43.43;79.12;;
66888;Laerm;53798;51.680;5.976;2023-01-01T08:40:55;48.17;44.43;57.46;;
66888;Laerm;53798;51.680;5.976;2023-01-01T08:43:24;62.76;44.43;78.96;;
66888;Laerm;53798;51.680;5.976;2023-01-01T08:45:51;54.99;48.00;66.11;;
66888;Laerm;53798;51.680;5.976;2023-01-01T08:48:18;59.44;48.72;77.42;;
66888;Laerm;53798;51.680;5.976;2023-01-01T08:50:53;61.81;46.88;75.71;;
66888;Laerm;53798;51.680;5.976;2023-01-01T08:53:21;58.13;44.44;75.05;;
66888;Laerm;53798;51.680;5.976;2023-01-01T08:55:56;60.17;40.78;79.75;;
66888;Laerm;53798;51.680;5.976;2023-01-01T08:58:25;43.67;38.97;55.22;;
66888;Laerm;53798;51.680;5.976;2023-01-01T09:00:53;54.38;38.25;73.75;;
66888;Laerm;53798;51.680;5.976;2023-01-01T09:03:21;61.15;38.98;75.95;;
66888;Laerm;53798;51.680;5.976;2023-01-01T09:05:48;62.16;37.17;78.15;;
66888;Laerm;53798;51.680;5.976;2023-01-01T09:08:16;42.29;36.19;58.99;;
66888;Laerm;53798;51.680;5.976;2023-01-01T09:10:43;42.70;35.62;59.10;;
66888;Laerm;53798;51.680;5.976;2023-01-01T09:13:14;63.81;37.61;80.28;;
66888;Laerm;53798;51.680;5.976;2023-01-01T09:15:42;59.59;39.36;73.02;;
66888;Laerm;53798;51.680;5.976;2023-01-01T09:18:10;65.64;42.00;81.73;;
66888;Laerm;53798;51.680;5.976;2023-01-01T09:20:38;66.75;39.50;81.50;;
66888;Laerm;53798;51.680;5.976;2023-01-01T09:23:07;60.40;38.74;76.34;;
66888;Laerm;53798;51.680;5.976;2023-01-01T09:25:34;61.81;38.31;78.08;;
66888;Laerm;53798;51.680;5.976;2023-01-01T09:28:06;64.92;39.69;78.54;;
66888;Laerm;53798;51.680;5.976;2023-01-01T09:30:35;65.74;38.23;80.08;;
66888;Laerm;53798;51.680;5.976;2023-01-01T09:33:03;66.69;37.55;82.09;;
66888;Laerm;53798;51.680;5.976;2023-01-01T09:35:30;60.99;37.19;78.07;;
66888;Laerm;53798;51.680;5.976;2023-01-01T09:37:57;42.30;37.03;57.69;;
66888;Laerm;53798;51.680;5.976;2023-01-01T09:46:03;67.68;37.99;81.73;;
66888;Laerm;53798;51.680;5.976;2023-01-01T09:48:40;63.63;36.44;82.15;;
66888;Laerm;53798;51.680;5.976;2023-01-01T09:51:17;64.10;37.34;79.10;;
66888;Laerm;53798;51.680;5.976;2023-01-01T09:54:28;45.54;36.62;65.46;;
66888;Laerm;53798;51.680;5.976;2023-01-01T09:57:00;64.68;37.85;84.10;;
66888;Laerm;53798;51.680;5.976;2023-01-01T09:59:28;46.27;36.57;62.46;;
66888;Laerm;53798;51.680;5.976;2023-01-01T10:13:27;64.28;38.89;78.91;;
66888;Laerm;53798;51.680;5.976;2023-01-01T10:16:33;59.64;38.52;77.46;;
66888;Laerm;53798;51.680;5.976;2023-01-01T10:19:29;63.31;38.73;75.65;;
66888;Laerm;53798;51.680;5.976;2023-01-01T10:22:15;65.92;43.81;78.21;;
66888;Laerm;53798;51.680;5.976;2023-01-01T10:24:56;66.67;41.26;80.18;;
66888;Laerm;53798;51.680;5.976;2023-01-01T10:27:34;66.00;41.24;83.41;;
66888;Laerm;53798;51.680;5.976;2023-01-01T10:30:14;65.99;46.55;78.96;;
66888;Laerm;53798;51.680;5.976;2023-01-01T10:32:41;64.79;41.79;79.63;;
66888;Laerm;53798;51.680;5.976;2023-01-01T10:35:33;67.84;40.49;81.13;;
66888;Laerm;53798;51.680;5.976;2023-01-01T10:38:03;68.15;39.81;82.33;;
66888;Laerm;53798;51.680;5.976;2023-01-01T10:40:31;46.09;40.56;57.95;;
66888;Laerm;53798;51.680;5.976;2023-01-01T10:43:00;67.15;41.30;82.20;;
66888;Laerm;53798;51.680;5.976;2023-01-01T10:45:42;59.28;40.52;76.08;;
66888;Laerm;53798;51.680;5.976;2023-01-01T10:48:13;65.18;41.40;82.20;;
66888;Laerm;53798;51.680;5.976;2023-01-01T10:50:50;67.63;42.21;81.98;;
66888;Laerm;53798;51.680;5.976;2023-01-01T10:56:09;67.22;42.59;80.71;;
66888;Laerm;53798;51.680;5.976;2023-01-01T10:58:47;66.75;40.47;80.73;;
66888;Laerm;53798;51.680;5.976;2023-01-01T11:01:28;66.93;39.73;82.81;;
66888;Laerm;53798;51.680;5.976;2023-01-01T11:04:00;64.80;40.42;83.38;;
66888;Laerm;53798;51.680;5.976;2023-01-01T11:06:37;64.04;41.83;82.08;;
66888;Laerm;53798;51.680;5.976;2023-01-01T11:09:20;65.35;41.00;81.52;;
66888;Laerm;53798;51.680;5.976;2023-01-01T11:11:59;66.10;41.78;80.39;;
66888;Laerm;53798;51.680;5.976;2023-01-01T11:14:48;66.16;40.46;81.63;;
66888;Laerm;53798;51.680;5.976;2023-01-01T11:17:22;65.08;41.50;80.46;;
66888;Laerm;53798;51.680;5.976;2023-01-01T11:19:52;67.31;41.83;80.98;;
66888;Laerm;53798;51.680;5.976;2023-01-01T11:25:18;65.02;40.49;79.01;;
66888;Laerm;53798;51.680;5.976;2023-01-01T11:27:46;68.83;41.41;83.03;;
66888;Laerm;53798;51.680;5.976;2023-01-01T11:30:25;72.62;38.80;98.05;;
66888;Laerm;53798;51.680;5.976;2023-01-01T11:33:01;64.78;39.28;77.26;;
66888;Laerm;53798;51.680;5.976;2023-01-01T11:35:47;65.53;40.50;80.41;;
66888;Laerm;53798;51.680;5.976;2023-01-01T11:38:21;70.41;49.83;85.22;;
66888;Laerm;53798;51.680;5.976;2023-01-01T11:41:04;65.77;39.07;80.86;;
66888;Laerm;53798;51.680;5.976;2023-01-01T11:43:44;65.35;40.81;78.88;;
66888;Laerm;53798;51.680;5.976;2023-01-01T11:46:22;61.05;38.69;79.81;;
66888;Laerm;53798;51.680;5.976;2023-01-01T11:48:52;68.27;41.83;81.11;;
66888;Laerm;53798;51.680;5.976;2023-01-01T11:51:32;65.99;39.95;82.58;;
66888;Laerm;53798;51.680;5.976;2023-01-01T11:54:33;65.91;39.50;80.21;;
66888;Laerm;53798;51.680;5.976;2023-01-01T11:57:20;66.65;41.01;80.30;;
66888;Laerm;53798;51.680;5.976;2023-01-01T12:00:00;66.79;40.77;82.07;;
66888;Laerm;53798;51.680;5.976;2023-01-01T12:02:39;64.85;40.57;79.53;;
66888;Laerm;53798;51.680;5.976;2023-01-01T12:05:23;64.01;39.50;78.96;;
66888;Laerm;53798;51.680;5.976;2023-01-01T12:07:52;64.30;38.86;77.09;;
66888;Laerm;53798;51.680;5.976;2023-01-01T12:10:26;60.56;39.94;76.98;;
66888;Laerm;53798;51.680;5.976;2023-01-01T12:13:29;68.61;39.03;79.22;;
66888;Laerm;53798;51.680;5.976;2023-01-01T12:16:13;68.66;39.65;84.88;;
66888;Laerm;53798;51.680;5.976;2023-01-01T12:18:58;66.26;41.35;79.16;;
66888;Laerm;53798;51.680;5.976;2023-01-01T12:21:28;64.53;40.93;79.19;;
66888;Laerm;53798;51.680;5.976;2023-01-01T12:23:55;68.40;44.15;81.50;;
66888;Laerm;53798;51.680;5.976;2023-01-01T12:26:35;64.26;42.27;77.53;;
66888;Laerm;53798;51.680;5.976;2023-01-01T12:32:13;65.66;40.99;79.99;;
66888;Laerm;53798;51.680;5.976;2023-01-01T12:35:11;68.48;38.70;84.30;;
66888;Laerm;53798;51.680;5.976;2023-01-01T12:40:57;68.54;36.75;84.87;;
66888;Laerm;53798;51.680;5.976;2023-01-01T12:44:01;64.69;41.18;79.09;;
66888;Laerm;53798;51.680;5.976;2023-01-01T12:47:31;67.89;41.37;81.12;;
66888;Laerm;53798;51.680;5.976;2023-01-01T12:56:39;65.14;40.93;78.46;;
66888;Laerm;53798;51.680;5.976;2023-01-01T12:59:25;69.15;41.38;82.37;;
66888;Laerm;53798;51.680;5.976;2023-01-01T13:01:57;65.02;40.30;76.31;;
66888;Laerm;53798;51.680;5.976;2023-01-01T13:04:26;67.59;40.27;78.98;;
66888;Laerm;53798;51.680;5.976;2023-01-01T13:07:02;66.58;38.17;81.15;;
66888;Laerm;53798;51.680;5.976;2023-01-01T13:09:36;64.11;40.20;76.69;;
66888;Laerm;53798;51.680;5.976;2023-01-01T13:14:42;64.76;38.76;80.11;;
66888;Laerm;53798;51.680;5.976;2023-01-01T13:17:19;64.50;42.28;79.96;;
66888;Laerm;53798;51.680;5.976;2023-01-01T13:22:40;66.72;40.37;78.25;;
66888;Laerm;53798;51.680;5.976;2023-01-01T13:33:30;68.76;38.84;81.81;;
66888;Laerm;53798;51.680;5.976;2023-01-01T13:38:55;67.07;48.48;78.02;;
66888;Laerm;53798;51.680;5.976;2023-01-01T13:49:37;62.18;38.26;76.29;;
66888;Laerm;53798;51.680;5.976;2023-01-01T13:53:07;62.77;39.39;79.05;;
66888;Laerm;53798;51.680;5.976;2023-01-01T14:02:59;68.31;44.03;82.39;;
66888;Laerm;53798;51.680;5.976;2023-01-01T14:08:35;67.08;39.99;81.29;;
66888;Laerm;53798;51.680;5.976;2023-01-01T14:11:19;66.73;41.80;79.08;;
66888;Laerm;53798;51.680;5.976;2023-01-01T14:13:47;64.03;39.80;78.64;;
66888;Laerm;53798;51.680;5.976;2023-01-01T14:16:14;61.97;39.60;77.06;;
66888;Laerm;53798;51.680;5.976;2023-01-01T14:18:49;65.26;40.48;78.25;;
66888;Laerm;53798;51.680;5.976;2023-01-01T14:21:21;68.91;46.75;81.24;;
66888;Laerm;53798;51.680;5.976;2023-01-01T14:24:21;66.70;42.27;79.89;;
66888;Laerm;53798;51.680;5.976;2023-01-01T14:26:51;65.06;39.80;79.44;;
66888;Laerm;53798;51.680;5.976;2023-01-01T14:29:28;68.44;39.86;80.90;;
66888;Laerm;53798;51.680;5.976;2023-01-01T14:31:59;65.46;40.82;77.36;;
66888;Laerm;53798;51.680;5.976;2023-01-01T14:34:32;65.51;41.35;79.01;;
66888;Laerm;53798;51.680;5.976;2023-01-01T14:37:04;65.48;39.31;82.08;;
66888;Laerm;53798;51.680;5.976;2023-01-01T14:39:34;67.06;42.49;79.85;;
66888;Laerm;53798;51.680;5.976;2023-01-01T14:42:15;67.24;38.27;81.10;;
66888;Laerm;53798;51.680;5.976;2023-01-01T14:44:48;66.55;38.47;81.66;;
66888;Laerm;53798;51.680;5.976;2023-01-01T14:47:26;65.57;39.21;80.27;;
66888;Laerm;53798;51.680;5.976;2023-01-01T14:50:18;64.91;41.08;78.01;;
66888;Laerm;53798;51.680;5.976;2023-01-01T14:52:56;67.56;40.91;83.03;;
66888;Laerm;53798;51.680;5.976;2023-01-01T14:55:31;64.13;38.65;80.38;;
66888;Laerm;53798;51.680;5.976;2023-01-01T14:58:01;64.54;40.77;79.33;;
66888;Laerm;53798;51.680;5.976;2023-01-01T15:00:32;65.83;42.97;78.04;;
66888;Laerm;53798;51.680;5.976;2023-01-01T15:03:27;64.36;41.25;77.25;;
66888;Laerm;53798;51.680;5.976;2023-01-01T15:06:01;68.08;42.80;82.66;;
66888;Laerm;53798;51.680;5.976;2023-01-01T15:08:28;69.07;43.72;82.36;;
66888;Laerm;53798;51.680;5.976;2023-01-01T15:10:57;66.37;39.99;78.88;;
66888;Laerm;53798;51.680;5.976;2023-01-01T15:13:26;64.14;38.26;76.01;;
66888;Laerm;53798;51.680;5.976;2023-01-01T15:15:56;66.81;40.20;80.95;;
66888;Laerm;53798;51.680;5.976;2023-01-01T15:18:42;65.06;38.41;77.43;;
66888;Laerm;53798;51.680;5.976;2023-01-01T15:21:33;64.12;38.06;76.61;;
66888;Laerm;53798;51.680;5.976;2023-01-01T15:24:13;60.02;39.28;74.50;;
66888;Laerm;53798;51.680;5.976;2023-01-01T15:29:44;67.34;39.86;83.15;;
66888;Laerm;53798;51.680;5.976;2023-01-01T15:32:14;60.30;39.05;77.43;;
66888;Laerm;53798;51.680;5.976;2023-01-01T15:42:43;70.23;41.62;83.82;;
66888;Laerm;53798;51.680;5.976;2023-01-01T15:47:56;58.22;38.70;75.52;;
66888;Laerm;53798;51.680;5.976;2023-01-01T15:50:29;61.23;39.18;77.20;;
66888;Laerm;53798;51.680;5.976;2023-01-01T15:53:01;65.32;38.57;80.41;;
66888;Laerm;53798;51.680;5.976;2023-01-01T15:55:33;61.75;38.71;76.36;;
66888;Laerm;53798;51.680;5.976;2023-01-01T15:58:03;65.51;39.73;80.27;;
66888;Laerm;53798;51.680;5.976;2023-01-01T16:00:37;64.33;40.69;78.47;;
66888;Laerm;53798;51.680;5.976;2023-01-01T16:03:19;64.41;40.15;78.14;;
66888;Laerm;53798;51.680;5.976;2023-01-01T16:05:52;60.79;37.81;77.59;;
66888;Laerm;53798;51.680;5.976;2023-01-01T16:08:21;66.83;39.17;82.12;;